Terminal Aerodrome Forecast
Issued by NWS Twin Cities, MN

Home | Current Version | Previous Version | Text Only | Print | Product List | Glossary On
Versions: 1 2 3 4 5 6 7 8 9 10 11 12 13 14 15 16 17 18 19 20 21 22 23 24 25 26 27
000
FTUS43 KMPX 231700
TAFMSP
TAF
KMSP 231720Z 2318/2424 08009KT P6SM VCSH FEW009 OVC015
     FM231900 09010KT P6SM BKN015 OVC050
     FM232200 09010KT P6SM BKN025 BKN050
     FM240000 10011KT P6SM SCT025 BKN050
     FM240500 12012KT P6SM VCSH BKN025 OVC050 PROB30 2405/2408 4SM
      -TSRA BKN025CB OVC050
     FM240900 13012KT 6SM BR OVC008
     FM241700 15010KT P6SM BKN012=

USA.gov is the U.S. government's official web portal to all federal, state and local government web resources and services.